createdAt,value
2022-11-03T00:01:52.453Z,10.61
2022-11-03T00:04:21.373Z,10.64
2022-11-03T00:06:53.163Z,10.60
2022-11-03T00:09:20.749Z,10.58
2022-11-03T00:11:50.769Z,10.59
2022-11-03T00:14:17.896Z,10.61
2022-11-03T00:16:45.120Z,10.66
2022-11-03T00:19:13.753Z,10.70
2022-11-03T00:21:40.618Z,10.74
2022-11-03T00:24:07.802Z,10.75
2022-11-03T00:26:36.029Z,10.80
2022-11-03T00:29:11.418Z,10.83
2022-11-03T00:31:40.216Z,10.85
2022-11-03T00:34:07.394Z,10.85
2022-11-03T00:36:36.050Z,10.85
2022-11-03T00:39:03.884Z,10.85
2022-11-03T00:41:30.578Z,10.84
2022-11-03T00:43:57.556Z,10.84
2022-11-03T00:46:25.656Z,10.86
2022-11-03T00:48:52.786Z,10.82
2022-11-03T00:51:33.543Z,10.77
2022-11-03T00:54:01.819Z,10.74
2022-11-03T00:56:30.995Z,10.70
2022-11-03T00:58:59.316Z,10.68
2022-11-03T01:01:37.044Z,10.67
2022-11-03T01:04:24.850Z,10.68
2022-11-03T01:06:54.670Z,10.66
2022-11-03T01:09:30.037Z,10.66
2022-11-03T01:12:07.135Z,10.67
2022-11-03T01:14:35.317Z,10.66
2022-11-03T01:17:04.953Z,10.63
2022-11-03T01:19:31.670Z,10.63
2022-11-03T01:21:58.331Z,10.59
2022-11-03T01:24:24.929Z,10.60
2022-11-03T01:26:51.623Z,10.61
2022-11-03T01:29:18.830Z,10.60
2022-11-03T01:31:45.696Z,10.56
2022-11-03T01:34:16.870Z,10.55
2022-11-03T01:36:44.033Z,10.53
2022-11-03T01:39:15.278Z,10.54
2022-11-03T01:41:43.851Z,10.54
2022-11-03T01:44:10.422Z,10.48
2022-11-03T01:46:46.862Z,10.43
2022-11-03T01:49:19.640Z,10.46
2022-11-03T01:51:52.809Z,10.42
2022-11-03T01:54:23.776Z,10.38
2022-11-03T01:56:51.942Z,10.33
2022-11-03T01:59:22.684Z,10.34
2022-11-03T02:01:49.794Z,10.38
2022-11-03T02:04:43.189Z,10.38
2022-11-03T02:07:31.183Z,10.39
2022-11-03T02:09:57.943Z,10.40
2022-11-03T02:12:24.736Z,10.41
2022-11-03T02:15:00.355Z,10.40
2022-11-03T02:17:30.643Z,10.40
2022-11-03T02:20:11.188Z,10.36
2022-11-03T02:22:49.456Z,10.34
2022-11-03T02:25:31.075Z,10.32
2022-11-03T02:27:58.529Z,10.26
2022-11-03T02:30:29.315Z,10.24
2022-11-03T02:33:04.608Z,10.24
2022-11-03T02:35:46.984Z,10.25
2022-11-03T02:38:16.930Z,10.26
2022-11-03T02:40:48.190Z,10.26
2022-11-03T02:43:17.495Z,10.28
2022-11-03T02:45:47.643Z,10.28
2022-11-03T02:48:17.894Z,10.28
2022-11-03T02:50:44.982Z,10.27
2022-11-03T02:53:13.363Z,10.28
2022-11-03T02:55:46.425Z,10.29
2022-11-03T02:58:16.046Z,10.31
2022-11-03T03:01:24.397Z,10.32
2022-11-03T03:03:58.287Z,10.29
2022-11-03T03:06:31.166Z,10.24
2022-11-03T03:09:06.709Z,10.21
2022-11-03T03:11:39.384Z,10.23
2022-11-03T03:14:16.990Z,10.25
2022-11-03T03:16:51.162Z,10.29
2022-11-03T03:19:53.373Z,10.32
2022-11-03T03:22:28.827Z,10.34
2022-11-03T03:25:04.082Z,10.35
2022-11-03T03:27:33.987Z,10.38
2022-11-03T03:30:05.152Z,10.41
2022-11-03T03:32:39.032Z,10.40
2022-11-03T03:35:08.730Z,10.40
2022-11-03T03:37:43.101Z,10.41
2022-11-03T03:40:12.584Z,10.43
2022-11-03T03:42:41.872Z,10.45
2022-11-03T03:45:11.475Z,10.44
2022-11-03T03:47:38.221Z,10.33
2022-11-03T03:50:05.237Z,10.24
2022-11-03T03:52:34.893Z,10.21
2022-11-03T03:55:01.745Z,10.18
2022-11-03T03:57:31.791Z,10.16
2022-11-03T03:59:58.542Z,10.12
2022-11-03T04:02:25.263Z,10.08
2022-11-03T04:04:51.939Z,10.05
2022-11-03T04:07:42.465Z,9.99
2022-11-03T04:10:10.388Z,9.98
2022-11-03T04:12:55.487Z,9.94
2022-11-03T04:15:40.622Z,9.92
2022-11-03T04:18:26.465Z,9.89
2022-11-03T04:21:12.766Z,9.84
2022-11-03T04:23:39.450Z,9.82
2022-11-03T04:26:13.074Z,9.76
2022-11-03T04:28:41.034Z,9.72
2022-11-03T04:31:12.519Z,9.71
2022-11-03T04:33:40.164Z,9.70
2022-11-03T04:36:22.367Z,9.65
2022-11-03T04:38:50.225Z,9.65
2022-11-03T04:41:31.810Z,9.62
2022-11-03T04:43:58.593Z,9.61
2022-11-03T04:46:27.865Z,9.61
2022-11-03T04:48:58.494Z,9.63
2022-11-03T04:51:27.821Z,9.65
2022-11-03T04:53:58.544Z,9.68
2022-11-03T04:56:25.827Z,9.71
2022-11-03T04:58:53.796Z,9.73
2022-11-03T05:01:24.480Z,9.74
2022-11-03T05:03:54.385Z,9.77
2022-11-03T05:06:27.958Z,9.78
2022-11-03T05:09:20.074Z,9.79
2022-11-03T05:11:46.726Z,9.81
2022-11-03T05:14:30.112Z,9.84
2022-11-03T05:16:57.113Z,9.87
2022-11-03T05:19:34.217Z,9.90
2022-11-03T05:22:03.436Z,9.94
2022-11-03T05:24:31.171Z,9.94
2022-11-03T05:26:59.081Z,9.95
2022-11-03T05:29:38.010Z,9.96
2022-11-03T05:32:12.190Z,9.98
2022-11-03T05:34:44.551Z,9.98
2022-11-03T05:37:28.575Z,9.98
2022-11-03T05:39:58.705Z,9.98
2022-11-03T05:42:34.264Z,10.02
2022-11-03T05:45:04.696Z,10.04
2022-11-03T05:47:39.026Z,10.04
2022-11-03T05:50:17.308Z,10.07
2022-11-03T05:52:46.088Z,10.08
2022-11-03T05:55:24.173Z,10.12
2022-11-03T05:57:50.961Z,10.19
2022-11-03T06:00:48.221Z,10.24
2022-11-03T06:03:21.483Z,10.28
2022-11-03T06:05:48.097Z,10.32
2022-11-03T06:10:57.182Z,10.38
2022-11-03T06:13:38.025Z,10.42
2022-11-03T06:16:16.754Z,10.49
2022-11-03T06:18:43.392Z,10.53
2022-11-03T06:21:16.465Z,10.56
2022-11-03T06:23:43.332Z,10.62
2022-11-03T06:26:17.636Z,10.66
2022-11-03T06:28:45.333Z,10.72
2022-11-03T06:31:28.230Z,10.73
2022-11-03T06:33:57.545Z,10.72
2022-11-03T06:36:27.899Z,10.69
2022-11-03T06:39:02.054Z,10.72
2022-11-03T06:41:32.386Z,10.69
2022-11-03T06:44:02.353Z,10.73
2022-11-03T06:46:30.980Z,10.74
2022-11-03T06:49:04.267Z,10.73
2022-11-03T06:51:35.239Z,10.75
2022-11-03T06:54:05.933Z,10.79
2022-11-03T06:56:37.043Z,10.83
2022-11-03T06:59:03.638Z,10.87
2022-11-03T07:01:33.615Z,10.94
2022-11-03T07:04:03.652Z,10.97
2022-11-03T07:06:34.673Z,11.00
2022-11-03T07:09:04.925Z,11.00
2022-11-03T07:11:50.761Z,11.00
2022-11-03T07:14:21.582Z,10.99
2022-11-03T07:16:57.871Z,11.02
2022-11-03T07:19:34.743Z,11.06
2022-11-03T07:22:04.787Z,11.01
2022-11-03T07:24:34.775Z,11.01
2022-11-03T07:27:25.998Z,11.06
2022-11-03T07:29:58.101Z,11.10
2022-11-03T07:32:30.257Z,11.08
2022-11-03T07:35:15.506Z,11.08
2022-11-03T07:37:42.200Z,10.99
2022-11-03T07:40:27.957Z,11.02
2022-11-03T07:43:09.848Z,11.05
2022-11-03T07:45:41.583Z,11.07
2022-11-03T07:48:26.037Z,11.09
2022-11-03T07:50:59.396Z,11.13
2022-11-03T07:53:33.364Z,11.15
2022-11-03T07:56:00.083Z,11.23
2022-11-03T07:58:36.869Z,11.29
2022-11-03T08:01:22.082Z,11.32
2022-11-03T08:03:49.102Z,11.33
2022-11-03T08:06:18.758Z,11.38
2022-11-03T08:08:46.834Z,11.35
2022-11-03T08:13:40.951Z,11.30
2022-11-03T08:16:07.901Z,11.32
2022-11-03T08:18:34.534Z,11.26
2022-11-03T08:21:01.113Z,11.13
2022-11-03T08:23:28.158Z,11.03
2022-11-03T08:25:55.040Z,11.09
2022-11-03T08:28:21.755Z,11.16
2022-11-03T08:30:48.374Z,11.22
2022-11-03T08:33:15.029Z,11.27
2022-11-03T08:35:41.734Z,11.30
2022-11-03T08:38:08.575Z,11.31
2022-11-03T08:40:35.497Z,11.17
2022-11-03T08:43:03.140Z,11.19
2022-11-03T08:45:30.441Z,11.32
2022-11-03T08:47:57.882Z,11.32
2022-11-03T08:50:24.703Z,11.39
2022-11-03T08:52:51.458Z,11.28
2022-11-03T08:55:18.314Z,11.28
2022-11-03T08:57:44.947Z,11.28
2022-11-03T09:00:12.314Z,11.42
2022-11-03T09:02:39.091Z,11.55
2022-11-03T09:05:07.771Z,11.55
2022-11-03T09:10:23.340Z,11.72
2022-11-03T09:12:54.084Z,11.82
2022-11-03T09:15:20.818Z,11.83
2022-11-03T09:17:47.817Z,12.00
2022-11-03T09:20:14.563Z,12.11
2022-11-03T09:22:41.169Z,12.00
2022-11-03T09:25:08.319Z,12.13
2022-11-03T09:27:34.947Z,12.23
2022-11-03T09:30:14.792Z,12.36
2022-11-03T09:32:41.720Z,12.38
2022-11-03T09:35:09.926Z,12.45
2022-11-03T09:37:36.957Z,12.61
2022-11-03T09:40:04.460Z,12.66
2022-11-03T09:42:34.451Z,12.76
2022-11-03T09:45:02.067Z,12.77
2022-11-03T09:47:38.409Z,12.87
2022-11-03T09:50:06.330Z,12.77
2022-11-03T09:52:33.504Z,12.68
2022-11-03T09:55:00.181Z,12.63
2022-11-03T09:57:27.945Z,12.77
2022-11-03T09:59:55.152Z,12.80
2022-11-03T10:02:26.799Z,12.88
2022-11-03T10:04:54.698Z,12.92
2022-11-03T10:07:22.059Z,12.77
2022-11-03T10:09:53.139Z,12.85
2022-11-03T10:12:23.914Z,12.90
2022-11-03T10:14:51.529Z,12.79
2022-11-03T10:17:25.724Z,12.66
2022-11-03T10:19:55.971Z,12.55
2022-11-03T10:22:22.936Z,12.58
2022-11-03T10:25:09.732Z,12.57
2022-11-03T10:27:36.364Z,12.68
2022-11-03T10:30:12.896Z,12.71
2022-11-03T10:32:41.529Z,12.82
2022-11-03T10:35:34.746Z,12.70
2022-11-03T10:38:32.253Z,12.81
2022-11-03T10:41:13.975Z,12.80
2022-11-03T10:43:42.591Z,12.84
2022-11-03T10:46:44.696Z,12.91
2022-11-03T10:49:10.303Z,12.95
2022-11-03T10:51:37.733Z,12.88
2022-11-03T10:54:06.203Z,12.88
2022-11-03T10:56:33.533Z,12.70
2022-11-03T10:59:00.983Z,12.80
2022-11-03T11:01:27.831Z,12.77
2022-11-03T11:03:55.444Z,12.83
2022-11-03T11:06:27.899Z,12.70
2022-11-03T11:09:00.577Z,12.68
2022-11-03T11:11:28.146Z,12.50
2022-11-03T11:14:28.548Z,12.55
2022-11-03T11:16:56.762Z,12.47
2022-11-03T11:19:25.461Z,12.49
2022-11-03T11:21:54.775Z,12.66
2022-11-03T11:24:43.042Z,12.76
2022-11-03T11:27:32.052Z,12.71
2022-11-03T11:30:00.453Z,12.78
2022-11-03T11:32:42.061Z,12.71
2022-11-03T11:35:28.738Z,12.83
2022-11-03T11:37:55.489Z,12.63
2022-11-03T11:40:25.008Z,12.48
2022-11-03T11:43:13.427Z,12.42
2022-11-03T11:46:17.722Z,12.47
2022-11-03T11:48:44.465Z,12.53
2022-11-03T11:51:12.300Z,12.58
2022-11-03T11:53:44.856Z,12.46
2022-11-03T11:56:16.444Z,12.45
2022-11-03T11:58:47.341Z,12.37
2022-11-03T12:01:28.520Z,12.44
2022-11-03T12:04:01.646Z,12.63
2022-11-03T12:06:38.764Z,12.67
2022-11-03T12:09:23.272Z,12.68
2022-11-03T12:11:56.313Z,12.74
2022-11-03T12:14:25.943Z,12.76
2022-11-03T12:16:53.613Z,12.76
2022-11-03T12:19:36.629Z,12.86
2022-11-03T12:22:05.326Z,12.82
2022-11-03T12:24:32.247Z,12.76
2022-11-03T12:27:03.208Z,12.65
2022-11-03T12:29:29.849Z,12.67
2022-11-03T12:31:56.449Z,12.65
2022-11-03T12:34:23.051Z,12.74
2022-11-03T12:36:54.746Z,12.89
2022-11-03T12:39:22.816Z,13.00
2022-11-03T12:41:49.404Z,13.03
2022-11-03T12:44:16.070Z,13.28
2022-11-03T12:46:42.889Z,13.50
2022-11-03T12:49:09.587Z,14.00
2022-11-03T12:51:36.144Z,14.81
2022-11-03T12:54:02.949Z,15.41
2022-11-03T12:56:29.556Z,15.82
2022-11-03T12:58:56.162Z,16.07
2022-11-03T13:01:22.967Z,16.47
2022-11-03T13:03:49.771Z,16.44
2022-11-03T13:06:16.588Z,17.07
2022-11-03T13:08:44.710Z,17.41
2022-11-03T13:11:31.829Z,17.81
2022-11-03T13:13:59.241Z,17.74
2022-11-03T13:16:25.889Z,17.31
2022-11-03T13:18:52.611Z,17.60
2022-11-03T13:21:19.552Z,17.95
2022-11-03T13:23:46.151Z,17.64
2022-11-03T13:26:12.759Z,17.83
2022-11-03T13:28:50.581Z,17.82
2022-11-03T13:31:17.180Z,18.28
2022-11-03T13:33:43.773Z,18.66
2022-11-03T13:36:10.555Z,18.28
2022-11-03T13:38:37.220Z,18.72
2022-11-03T13:41:08.489Z,19.02
2022-11-03T13:43:35.602Z,19.26
2022-11-03T13:46:03.975Z,19.36
2022-11-03T13:49:33.165Z,19.72
2022-11-03T13:51:18.968Z,19.52
2022-11-03T13:59:26.609Z,19.47
2022-11-03T14:07:07.606Z,19.69
2022-11-03T14:12:25.432Z,20.26
2022-11-03T14:14:51.990Z,19.77
2022-11-03T14:17:18.616Z,19.46
2022-11-03T14:19:51.752Z,20.02
2022-11-03T14:22:20.090Z,20.10
2022-11-03T14:24:46.738Z,19.88
2022-11-03T14:27:13.593Z,19.83
2022-11-03T14:29:40.253Z,19.86
2022-11-03T14:32:06.978Z,19.79
2022-11-03T14:34:33.681Z,19.87
2022-11-03T14:37:00.940Z,19.24
2022-11-03T14:39:28.158Z,19.43
2022-11-03T14:42:03.511Z,19.07
2022-11-03T14:44:35.789Z,17.78
2022-11-03T14:47:03.677Z,17.81
2022-11-03T14:49:31.750Z,17.58
2022-11-03T14:51:59.770Z,17.16
2022-11-03T14:54:26.739Z,16.56
2022-11-03T14:56:53.909Z,15.88
2022-11-03T14:59:21.169Z,15.44
2022-11-03T15:01:49.221Z,15.09
2022-11-03T15:04:15.909Z,14.67
2022-11-03T15:06:43.173Z,14.26
2022-11-03T15:11:42.363Z,13.72
2022-11-03T15:14:09.289Z,13.50
2022-11-03T15:16:38.908Z,13.25
2022-11-03T15:19:06.524Z,13.11
2022-11-03T15:21:33.693Z,13.00
2022-11-03T15:26:48.070Z,12.70
2022-11-03T15:29:14.764Z,12.57
2022-11-03T15:31:47.260Z,12.45
2022-11-03T15:34:14.410Z,12.32
2022-11-03T15:36:41.051Z,12.27
2022-11-03T15:39:07.765Z,12.20
2022-11-03T15:41:34.332Z,12.12
2022-11-03T15:44:00.979Z,12.05
2022-11-03T15:46:27.575Z,12.00
2022-11-03T15:48:56.556Z,11.94
2022-11-03T15:51:23.577Z,11.89
2022-11-03T15:53:56.694Z,11.86
2022-11-03T15:56:25.802Z,11.81
2022-11-03T15:58:52.329Z,11.76
2022-11-03T16:01:19.078Z,11.70
2022-11-03T16:03:45.815Z,11.66
2022-11-03T16:06:13.090Z,11.61
2022-11-03T16:08:39.764Z,11.57
2022-11-03T16:11:06.389Z,11.54
2022-11-03T16:13:33.098Z,11.49
2022-11-03T16:15:59.693Z,11.46
2022-11-03T16:18:26.307Z,11.42
2022-11-03T16:20:52.927Z,11.39
2022-11-03T16:23:19.505Z,11.33
2022-11-03T16:25:46.080Z,11.30
2022-11-03T16:28:12.843Z,11.28
2022-11-03T16:30:39.669Z,11.24
2022-11-03T16:33:07.514Z,11.20
2022-11-03T16:35:34.233Z,11.15
2022-11-03T16:38:01.100Z,11.13
2022-11-03T16:40:28.104Z,11.12
2022-11-03T16:42:55.182Z,11.10
2022-11-03T16:45:24.018Z,11.07
2022-11-03T16:47:51.051Z,11.04
2022-11-03T16:50:18.988Z,11.04
2022-11-03T16:52:47.261Z,11.01
2022-11-03T16:55:16.994Z,11.01
2022-11-03T16:57:43.810Z,11.01
2022-11-03T17:00:18.695Z,11.00
2022-11-03T17:02:47.099Z,11.02
2022-11-03T17:05:15.679Z,11.00
2022-11-03T17:07:42.290Z,10.97
2022-11-03T17:10:09.364Z,10.97
2022-11-03T17:12:35.965Z,10.96
2022-11-03T17:15:02.875Z,10.97
2022-11-03T17:17:29.613Z,10.96
2022-11-03T17:19:56.525Z,10.92
2022-11-03T17:22:23.327Z,10.92
2022-11-03T17:24:50.443Z,10.90
2022-11-03T17:27:22.891Z,10.89
2022-11-03T17:29:57.014Z,10.88
2022-11-03T17:32:35.444Z,10.86
2022-11-03T17:35:02.422Z,10.85
2022-11-03T17:37:29.332Z,10.87
2022-11-03T17:39:56.818Z,10.88
2022-11-03T17:42:25.402Z,10.88
2022-11-03T17:44:55.492Z,10.83
2022-11-03T17:47:23.782Z,10.81
2022-11-03T17:49:50.621Z,10.80
2022-11-03T17:52:27.965Z,10.79
2022-11-03T17:54:58.199Z,10.78
2022-11-03T17:57:26.549Z,10.75
2022-11-03T17:59:56.026Z,10.72
2022-11-03T18:02:25.373Z,10.72
2022-11-03T18:05:16.876Z,10.70
2022-11-03T18:07:47.167Z,10.68
2022-11-03T18:10:14.586Z,10.66
2022-11-03T18:13:03.181Z,10.64
2022-11-03T18:15:32.234Z,10.61
2022-11-03T18:17:59.097Z,10.60
2022-11-03T18:20:29.239Z,10.56
2022-11-03T18:23:19.943Z,10.51
2022-11-03T18:25:47.818Z,10.47
2022-11-03T18:28:15.516Z,10.39
2022-11-03T18:30:44.445Z,10.33
2022-11-03T18:33:17.591Z,10.26
2022-11-03T18:35:44.755Z,10.19
2022-11-03T18:38:13.575Z,10.16
2022-11-03T18:40:41.449Z,10.13
2022-11-03T18:43:19.927Z,10.10
2022-11-03T18:45:46.892Z,10.07
2022-11-03T18:48:19.479Z,10.05
2022-11-03T18:50:51.259Z,10.00
2022-11-03T18:53:20.672Z,9.97
2022-11-03T18:55:48.647Z,9.95
2022-11-03T18:58:18.047Z,9.93
2022-11-03T19:00:45.009Z,9.88
2022-11-03T19:03:22.590Z,9.87
2022-11-03T19:05:51.750Z,9.84
2022-11-03T19:08:30.800Z,9.83
2022-11-03T19:11:03.684Z,9.81
2022-11-03T19:13:35.732Z,9.81
2022-11-03T19:16:09.850Z,9.81
2022-11-03T19:18:36.448Z,9.78
2022-11-03T19:21:03.143Z,9.74
2022-11-03T19:23:29.727Z,9.70
2022-11-03T19:26:00.519Z,9.64
2022-11-03T19:28:29.967Z,9.61
2022-11-03T19:30:58.185Z,9.60
2022-11-03T19:33:27.270Z,9.57
2022-11-03T19:35:54.134Z,9.54
2022-11-03T19:38:21.440Z,9.52
2022-11-03T19:41:06.619Z,9.53
2022-11-03T19:43:35.005Z,9.51
2022-11-03T19:46:02.202Z,9.50
2022-11-03T19:48:33.356Z,9.50
2022-11-03T19:51:00.254Z,9.50
2022-11-03T19:53:29.383Z,9.51
2022-11-03T19:55:56.870Z,9.47
2022-11-03T19:58:29.145Z,9.46
2022-11-03T20:00:56.909Z,9.45
2022-11-03T20:03:24.463Z,9.44
2022-11-03T20:05:56.678Z,9.43
2022-11-03T20:08:29.000Z,9.42
2022-11-03T20:10:56.148Z,9.43
2022-11-03T20:13:26.255Z,9.44
2022-11-03T20:15:59.089Z,9.45
2022-11-03T20:18:27.441Z,9.43
2022-11-03T20:20:54.542Z,9.45
2022-11-03T20:23:30.382Z,9.44
2022-11-03T20:25:57.379Z,9.43
2022-11-03T20:28:27.654Z,9.41
2022-11-03T20:30:54.955Z,9.41
2022-11-03T20:33:23.569Z,9.41
2022-11-03T20:35:52.318Z,9.42
2022-11-03T20:38:20.542Z,9.43
2022-11-03T20:40:50.177Z,9.48
2022-11-03T20:43:26.626Z,9.52
2022-11-03T20:45:54.738Z,9.57
2022-11-03T20:48:22.099Z,9.63
2022-11-03T20:50:48.976Z,9.68
2022-11-03T20:53:18.945Z,9.75
2022-11-03T20:55:46.193Z,9.80
2022-11-03T20:58:16.237Z,9.86
2022-11-03T21:00:44.769Z,9.95
2022-11-03T21:03:31.466Z,10.00
2022-11-03T21:06:04.237Z,10.05
2022-11-03T21:08:30.908Z,10.09
2022-11-03T21:11:17.549Z,10.15
2022-11-03T21:13:44.444Z,10.19
2022-11-03T21:16:29.792Z,10.22
2022-11-03T21:19:15.049Z,10.26
2022-11-03T21:21:41.824Z,10.25
2022-11-03T21:24:12.802Z,10.29
2022-11-03T21:26:41.236Z,10.30
2022-11-03T21:29:08.163Z,10.28
2022-11-03T21:31:34.780Z,10.29
2022-11-03T21:34:01.422Z,10.36
2022-11-03T21:36:28.047Z,10.36
2022-11-03T21:38:54.738Z,10.37
2022-11-03T21:41:39.765Z,10.36
2022-11-03T21:44:16.439Z,10.34
2022-11-03T21:46:44.130Z,10.35
2022-11-03T21:49:29.576Z,10.36
2022-11-03T21:51:56.305Z,10.38
2022-11-03T21:54:23.038Z,10.42
2022-11-03T21:56:49.784Z,10.43
2022-11-03T21:59:16.506Z,10.48
2022-11-03T22:01:43.402Z,10.51
2022-11-03T22:04:10.139Z,10.55
2022-11-03T22:06:39.830Z,10.59
2022-11-03T22:09:06.555Z,10.59
2022-11-03T22:11:33.186Z,10.61
2022-11-03T22:14:01.367Z,10.66
2022-11-03T22:16:37.922Z,10.61
2022-11-03T22:19:35.072Z,10.63
2022-11-03T22:22:23.222Z,10.68
2022-11-03T22:25:08.553Z,10.69
2022-11-03T22:27:35.433Z,10.73
2022-11-03T22:30:20.453Z,10.78
2022-11-03T22:32:52.427Z,10.84
2022-11-03T22:35:37.437Z,10.85
2022-11-03T22:38:07.175Z,10.94
2022-11-03T22:40:53.623Z,11.00
2022-11-03T22:43:40.777Z,10.99
2022-11-03T22:46:08.425Z,10.96
2022-11-03T22:48:35.226Z,10.99
2022-11-03T22:51:05.482Z,11.01
2022-11-03T22:53:53.010Z,10.99
2022-11-03T22:56:20.655Z,10.97
2022-11-03T22:58:47.700Z,11.01
2022-11-03T23:01:16.908Z,11.04
2022-11-03T23:03:45.451Z,11.08
2022-11-03T23:06:15.290Z,11.07
2022-11-03T23:08:43.458Z,11.09
2022-11-03T23:11:16.243Z,11.07
2022-11-03T23:13:48.490Z,11.06
2022-11-03T23:16:18.220Z,11.06
2022-11-03T23:19:04.400Z,11.02
2022-11-03T23:21:32.436Z,10.99
2022-11-03T23:24:18.024Z,10.99
2022-11-03T23:26:44.916Z,11.01
2022-11-03T23:29:13.606Z,10.99
2022-11-03T23:31:41.682Z,10.99
2022-11-03T23:34:09.949Z,11.01
2022-11-03T23:36:37.102Z,10.99
2022-11-03T23:39:04.556Z,11.00
2022-11-03T23:41:31.212Z,11.02
2022-11-03T23:43:57.995Z,11.03
2022-11-03T23:46:47.614Z,11.03
2022-11-03T23:49:14.893Z,11.02
2022-11-03T23:51:44.506Z,11.01
2022-11-03T23:54:12.323Z,11.00
2022-11-03T23:57:00.027Z,11.00
2022-11-03T23:59:27.989Z,11.04
